Seapower — 9HA4550 — position and weather

sailwx.info

Track history (hours):
 
Tides and Currents Weather Stations Pressure Air Temp Water Temp Dewpoint Dewpoint Depression Visibility Wind Speed Wind Dir Waves Ship Positions

Seapower

Last reported at 2017-Dec-14 14:57 UTC. Time now 2017-Dec-16 09:20 UTC.
Position N 37°46' E 015°52'.

Length 101 m; draft 6 m.

Type: Ship (hazmat cat B). MMSI: 248180000.

Date/timePositionNaut miles runAvg speedWind from/ knotsBaromVisibWave heightAir tempDewpointWater temp
2017-Dec-14 14:57N 37°46' E 015°52'511.0
2017-Dec-14 14:29N 37°48' E 015°46'1410.7
2017-Dec-14 13:12N 37°57' E 015°33'211.7
2017-Dec-14 13:00N 37°59' E 015°33'611.6
2017-Dec-14 12:30N 38°05' E 015°34'612.6
2017-Dec-14 12:00N 38°11' E 015°36'610.1
2017-Dec-14 11:26N 38°16' E 015°40'410.3
2017-Dec-14 11:00N 38°20' E 015°39'510.8
2017-Dec-14 10:30N 38°25' E 015°36'34810.6
2017-Dec-13 01:37N 42°34' E 010°16'110.4
2017-Dec-13 01:29N 42°35' E 010°15'510.2
2017-Dec-13 00:57N 42°39' E 010°09'24 9.1
2017-Dec-12 22:16N 43°03' E 010°06'310.5
2017-Dec-12 22:00N 43°06' E 010°06'510.4
2017-Dec-12 21:30N 43°11' E 010°07'510.4
2017-Dec-12 21:00N 43°16' E 010°08'510.0
2017-Dec-12 20:30N 43°21' E 010°08'4 8.9
2017-Dec-12 20:00N 43°25' E 010°10'4 8.7
2017-Dec-12 19:30N 43°29' E 010°12'4 8.1
2017-Dec-12 19:00N 43°32' E 010°16'3 5.6
2017-Dec-12 18:30N 43°34' E 010°19'1 1.8
2017-Dec-12 17:58N 43°35' E 010°19'0 0.0
2017-Dec-12 17:28N 43°35' E 010°19'0 0.0
2017-Dec-12 16:58N 43°35' E 010°19'0 0.0
2017-Dec-12 16:28N 43°35' E 010°19'0 0.0
2017-Dec-12 15:58N 43°35' E 010°19'0 0.0
2017-Dec-12 15:28N 43°35' E 010°19'0 0.0
2017-Dec-12 14:52N 43°35' E 010°19'0 0.0
2017-Dec-12 14:28N 43°35' E 010°19'0 0.0
2017-Dec-12 13:55N 43°35' E 010°19'0 0.0
2017-Dec-12 13:28N 43°35' E 010°19'0 0.0
2017-Dec-12 12:58N 43°35' E 010°19'0 0.0
2017-Dec-12 12:19N 43°35' E 010°19'0 0.0
2017-Dec-12 11:58N 43°35' E 010°19'0 0.0
2017-Dec-12 11:28N 43°35' E 010°19'0 0.0
2017-Dec-12 10:58N 43°35' E 010°19'0 0.0
2017-Dec-12 10:28N 43°35' E 010°19'0 0.0
2017-Dec-12 09:58N 43°35' E 010°19'0 0.0
2017-Dec-12 09:28N 43°35' E 010°19'0 0.0
2017-Dec-12 08:58N 43°35' E 010°19'0 0.0
2017-Dec-12 08:25N 43°35' E 010°19'0 0.0
2017-Dec-12 07:58N 43°35' E 010°19'0 0.0
2017-Dec-12 07:28N 43°35' E 010°19'0 0.0
2017-Dec-12 06:58N 43°35' E 010°19'0 0.0
2017-Dec-12 06:28N 43°35' E 010°19'0 0.0
2017-Dec-12 05:58N 43°35' E 010°19'0 0.0
2017-Dec-12 05:28N 43°35' E 010°19'0 0.0
2017-Dec-12 04:58N 43°35' E 010°19'0 0.0
2017-Dec-12 04:28N 43°35' E 010°19'0 0.0
2017-Dec-12 03:55N 43°35' E 010°19'0 0.0
2017-Dec-12 03:28N 43°35' E 010°19'0 0.0
2017-Dec-12 02:58N 43°35' E 010°19'0 0.0
2017-Dec-12 02:28N 43°35' E 010°19'0 0.0
2017-Dec-12 01:58N 43°35' E 010°19'0 0.0
2017-Dec-12 01:22N 43°35' E 010°19'0 0.0
2017-Dec-12 00:58N 43°35' E 010°19'0 0.0
2017-Dec-12 00:10N 43°35' E 010°19'0 0.0
2017-Dec-11 23:58N 43°35' E 010°19'0 0.0
2017-Dec-11 23:28N 43°35' E 010°19'0 0.0
2017-Dec-11 22:58N 43°35' E 010°19'0 0.0
2017-Dec-11 22:28N 43°35' E 010°19'0 0.0
2017-Dec-11 21:58N 43°35' E 010°19'0 0.0
2017-Dec-11 21:28N 43°35' E 010°19'0 0.0
2017-Dec-11 20:55N 43°35' E 010°19'0 0.0
2017-Dec-11 20:28N 43°35' E 010°19'0 0.0
2017-Dec-11 19:58N 43°35' E 010°19'0 0.0
2017-Dec-11 19:25N 43°35' E 010°19'0 0.0
2017-Dec-11 18:55N 43°35' E 010°19'0 0.0
2017-Dec-11 18:28N 43°35' E 010°19'0 0.0
2017-Dec-11 17:58N 43°35' E 010°19'0 0.0
2017-Dec-11 17:28N 43°35' E 010°19'0 0.0
2017-Dec-11 16:55N 43°35' E 010°19'0 0.0
2017-Dec-11 16:28N 43°35' E 010°19'0 0.0
2017-Dec-11 15:55N 43°35' E 010°19'0 0.0
2017-Dec-11 15:28N 43°35' E 010°19'0 0.0
2017-Dec-11 14:55N 43°35' E 010°19'0 0.0
2017-Dec-11 14:28N 43°35' E 010°19'0 0.0
2017-Dec-11 13:58N 43°35' E 010°19'0 0.0
2017-Dec-11 13:28N 43°35' E 010°19'0 0.0
2017-Dec-11 12:55N 43°35' E 010°19'0 0.0
2017-Dec-11 12:28N 43°35' E 010°19'0 0.0
2017-Dec-11 11:58N 43°35' E 010°19'0 0.0
2017-Dec-11 11:28N 43°35' E 010°19'0 0.0
2017-Dec-11 10:58N 43°35' E 010°19'0 0.0
2017-Dec-11 10:25N 43°35' E 010°19'0 0.0
2017-Dec-11 09:58N 43°35' E 010°19'0 0.0
2017-Dec-11 09:30N 43°35' E 010°19'1 1.4
2017-Dec-11 09:00N 43°34' E 010°19'2 3.3
2017-Dec-11 08:30N 43°33' E 010°17'2 2.9
2017-Dec-11 07:57N 43°32' E 010°16'4 8.2
2017-Dec-11 07:30N 43°30' E 010°12'4 7.1
2017-Dec-11 06:59N 43°27' E 010°08'1 2.2
2017-Dec-11 06:30N 43°28' E 010°09'1 2.6
2017-Dec-11 06:00N 43°29' E 010°10'1 2.2
2017-Dec-11 05:30N 43°29' E 010°11'2 3.7
2017-Dec-11 05:00N 43°27' E 010°10'1 2.7
2017-Dec-11 04:30N 43°26' E 010°09'0 0.3
2017-Dec-11 04:00N 43°26' E 010°09'2 3.4
2017-Dec-11 03:30N 43°27' E 010°11'1 2.6
2017-Dec-11 02:58N 43°27' E 010°13'1 1.3
2017-Dec-11 02:30N 43°27' E 010°13'1 1.4
2017-Dec-11 02:01N 43°27' E 010°12'1 1.8
2017-Dec-11 01:25N 43°27' E 010°13'0 0.4
2017-Dec-11 00:57N 43°27' E 010°13'1 2.0
2017-Dec-11 00:30N 43°28' E 010°14'1 2.2
2017-Dec-11 00:01N 43°29' E 010°14'2 4.0
2017-Dec-10 23:29N 43°30' E 010°16'1 1.2
2017-Dec-10 22:57N 43°31' E 010°17'0 0.0
2017-Dec-10 22:30N 43°31' E 010°17'0 0.0
2017-Dec-10 22:00N 43°31' E 010°17'0 0.0
2017-Dec-10 21:30N 43°31' E 010°17'0 0.0
2017-Dec-10 21:00N 43°31' E 010°17'0 0.0
2017-Dec-10 20:30N 43°31' E 010°17'0 0.0
2017-Dec-10 20:00N 43°31' E 010°17'0 0.0
2017-Dec-10 19:30N 43°31' E 010°17'0 0.0
2017-Dec-10 18:57N 43°31' E 010°17'0 0.0
2017-Dec-10 18:27N 43°31' E 010°17'0 0.1
2017-Dec-10 18:00N 43°31' E 010°17'0 0.0
2017-Dec-10 17:30N 43°31' E 010°17'0 0.3
2017-Dec-10 17:01N 43°31' E 010°17'3 5.2
2017-Dec-10 16:27N 43°28' E 010°14'510.6
2017-Dec-10 16:01N 43°24' E 010°13'610.7
2017-Dec-10 15:27N 43°18' E 010°10'612.1
2017-Dec-10 14:57N 43°12' E 010°08'382 7.8
2017-Dec-08 14:00N 38°24' E 015°40'510.6
2017-Dec-08 13:30N 38°20' E 015°43'5 9.6
2017-Dec-08 13:00N 38°15' E 015°40'4 7.6
2017-Dec-08 12:30N 38°12' E 015°37'611.1
2017-Dec-08 11:55N 38°06' E 015°36'511.0
2017-Dec-08 11:29N 38°01' E 015°35'510.9
2017-Dec-08 11:00N 37°56' E 015°37'611.6
2017-Dec-08 10:29N 37°52' E 015°42'  
Track history (hours):
 
Tides and Currents Weather Stations Pressure Air Temp Water Temp Dewpoint Dewpoint Depression Visibility Wind Speed Wind Dir Waves Ship Positions

Seapower

Last reported at 2017-Dec-14 14:57 UTC. Time now 2017-Dec-16 09:20 UTC.
Position N 37°46' E 015°52'.

Length 101 m; draft 6 m.

Type: Ship (hazmat cat B). MMSI: 248180000.

Date/timePositionNaut miles runAvg speedWind from/ knotsBaromVisibWave heightAir tempDewpointWater temp
2017-Dec-14 14:57N 37°46' E 015°52'511.0
2017-Dec-14 14:29N 37°48' E 015°46'1410.7
2017-Dec-14 13:12N 37°57' E 015°33'211.7
2017-Dec-14 13:00N 37°59' E 015°33'611.6
2017-Dec-14 12:30N 38°05' E 015°34'612.6
2017-Dec-14 12:00N 38°11' E 015°36'610.1
2017-Dec-14 11:26N 38°16' E 015°40'410.3
2017-Dec-14 11:00N 38°20' E 015°39'510.8
2017-Dec-14 10:30N 38°25' E 015°36'34810.6
2017-Dec-13 01:37N 42°34' E 010°16'110.4
2017-Dec-13 01:29N 42°35' E 010°15'510.2
2017-Dec-13 00:57N 42°39' E 010°09'24 9.1
2017-Dec-12 22:16N 43°03' E 010°06'310.5
2017-Dec-12 22:00N 43°06' E 010°06'510.4
2017-Dec-12 21:30N 43°11' E 010°07'510.4
2017-Dec-12 21:00N 43°16' E 010°08'510.0
2017-Dec-12 20:30N 43°21' E 010°08'4 8.9
2017-Dec-12 20:00N 43°25' E 010°10'4 8.7
2017-Dec-12 19:30N 43°29' E 010°12'4 8.1
2017-Dec-12 19:00N 43°32' E 010°16'3 5.6
2017-Dec-12 18:30N 43°34' E 010°19'1 1.8
2017-Dec-12 17:58N 43°35' E 010°19'0 0.0
2017-Dec-12 17:28N 43°35' E 010°19'0 0.0
2017-Dec-12 16:58N 43°35' E 010°19'0 0.0
2017-Dec-12 16:28N 43°35' E 010°19'0 0.0
2017-Dec-12 15:58N 43°35' E 010°19'0 0.0
2017-Dec-12 15:28N 43°35' E 010°19'0 0.0
2017-Dec-12 14:52N 43°35' E 010°19'0 0.0
2017-Dec-12 14:28N 43°35' E 010°19'0 0.0
2017-Dec-12 13:55N 43°35' E 010°19'0 0.0
2017-Dec-12 13:28N 43°35' E 010°19'0 0.0
2017-Dec-12 12:58N 43°35' E 010°19'0 0.0
2017-Dec-12 12:19N 43°35' E 010°19'0 0.0
2017-Dec-12 11:58N 43°35' E 010°19'0 0.0
2017-Dec-12 11:28N 43°35' E 010°19'0 0.0
2017-Dec-12 10:58N 43°35' E 010°19'0 0.0
2017-Dec-12 10:28N 43°35' E 010°19'0 0.0
2017-Dec-12 09:58N 43°35' E 010°19'0 0.0
2017-Dec-12 09:28N 43°35' E 010°19'0 0.0
2017-Dec-12 08:58N 43°35' E 010°19'0 0.0
2017-Dec-12 08:25N 43°35' E 010°19'0 0.0
2017-Dec-12 07:58N 43°35' E 010°19'0 0.0
2017-Dec-12 07:28N 43°35' E 010°19'0 0.0
2017-Dec-12 06:58N 43°35' E 010°19'0 0.0
2017-Dec-12 06:28N 43°35' E 010°19'0 0.0
2017-Dec-12 05:58N 43°35' E 010°19'0 0.0
2017-Dec-12 05:28N 43°35' E 010°19'0 0.0
2017-Dec-12 04:58N 43°35' E 010°19'0 0.0
2017-Dec-12 04:28N 43°35' E 010°19'0 0.0
2017-Dec-12 03:55N 43°35' E 010°19'0 0.0
2017-Dec-12 03:28N 43°35' E 010°19'0 0.0
2017-Dec-12 02:58N 43°35' E 010°19'0 0.0
2017-Dec-12 02:28N 43°35' E 010°19'0 0.0
2017-Dec-12 01:58N 43°35' E 010°19'0 0.0
2017-Dec-12 01:22N 43°35' E 010°19'0 0.0
2017-Dec-12 00:58N 43°35' E 010°19'0 0.0
2017-Dec-12 00:10N 43°35' E 010°19'0 0.0
2017-Dec-11 23:58N 43°35' E 010°19'0 0.0
2017-Dec-11 23:28N 43°35' E 010°19'0 0.0
2017-Dec-11 22:58N 43°35' E 010°19'0 0.0
2017-Dec-11 22:28N 43°35' E 010°19'0 0.0
2017-Dec-11 21:58N 43°35' E 010°19'0 0.0
2017-Dec-11 21:28N 43°35' E 010°19'0 0.0
2017-Dec-11 20:55N 43°35' E 010°19'0 0.0
2017-Dec-11 20:28N 43°35' E 010°19'0 0.0
2017-Dec-11 19:58N 43°35' E 010°19'0 0.0
2017-Dec-11 19:25N 43°35' E 010°19'0 0.0
2017-Dec-11 18:55N 43°35' E 010°19'0 0.0
2017-Dec-11 18:28N 43°35' E 010°19'0 0.0
2017-Dec-11 17:58N 43°35' E 010°19'0 0.0
2017-Dec-11 17:28N 43°35' E 010°19'0 0.0
2017-Dec-11 16:55N 43°35' E 010°19'0 0.0
2017-Dec-11 16:28N 43°35' E 010°19'0 0.0
2017-Dec-11 15:55N 43°35' E 010°19'0 0.0
2017-Dec-11 15:28N 43°35' E 010°19'0 0.0
2017-Dec-11 14:55N 43°35' E 010°19'0 0.0
2017-Dec-11 14:28N 43°35' E 010°19'0 0.0
2017-Dec-11 13:58N 43°35' E 010°19'0 0.0
2017-Dec-11 13:28N 43°35' E 010°19'0 0.0
2017-Dec-11 12:55N 43°35' E 010°19'0 0.0
2017-Dec-11 12:28N 43°35' E 010°19'0 0.0
2017-Dec-11 11:58N 43°35' E 010°19'0 0.0
2017-Dec-11 11:28N 43°35' E 010°19'0 0.0
2017-Dec-11 10:58N 43°35' E 010°19'0 0.0
2017-Dec-11 10:25N 43°35' E 010°19'0 0.0
2017-Dec-11 09:58N 43°35' E 010°19'0 0.0
2017-Dec-11 09:30N 43°35' E 010°19'1 1.4
2017-Dec-11 09:00N 43°34' E 010°19'2 3.3
2017-Dec-11 08:30N 43°33' E 010°17'2 2.9
2017-Dec-11 07:57N 43°32' E 010°16'4 8.2
2017-Dec-11 07:30N 43°30' E 010°12'4 7.1
2017-Dec-11 06:59N 43°27' E 010°08'1 2.2
2017-Dec-11 06:30N 43°28' E 010°09'1 2.6
2017-Dec-11 06:00N 43°29' E 010°10'1 2.2
2017-Dec-11 05:30N 43°29' E 010°11'2 3.7
2017-Dec-11 05:00N 43°27' E 010°10'1 2.7
2017-Dec-11 04:30N 43°26' E 010°09'0 0.3
2017-Dec-11 04:00N 43°26' E 010°09'2 3.4
2017-Dec-11 03:30N 43°27' E 010°11'1 2.6
2017-Dec-11 02:58N 43°27' E 010°13'1 1.3
2017-Dec-11 02:30N 43°27' E 010°13'1 1.4
2017-Dec-11 02:01N 43°27' E 010°12'1 1.8
2017-Dec-11 01:25N 43°27' E 010°13'0 0.4
2017-Dec-11 00:57N 43°27' E 010°13'1 2.0
2017-Dec-11 00:30N 43°28' E 010°14'1 2.2
2017-Dec-11 00:01N 43°29' E 010°14'2 4.0
2017-Dec-10 23:29N 43°30' E 010°16'1 1.2
2017-Dec-10 22:57N 43°31' E 010°17'0 0.0
2017-Dec-10 22:30N 43°31' E 010°17'0 0.0
2017-Dec-10 22:00N 43°31' E 010°17'0 0.0
2017-Dec-10 21:30N 43°31' E 010°17'0 0.0
2017-Dec-10 21:00N 43°31' E 010°17'0 0.0
2017-Dec-10 20:30N 43°31' E 010°17'0 0.0
2017-Dec-10 20:00N 43°31' E 010°17'0 0.0
2017-Dec-10 19:30N 43°31' E 010°17'0 0.0
2017-Dec-10 18:57N 43°31' E 010°17'0 0.0
2017-Dec-10 18:27N 43°31' E 010°17'0 0.1
2017-Dec-10 18:00N 43°31' E 010°17'0 0.0
2017-Dec-10 17:30N 43°31' E 010°17'0 0.3
2017-Dec-10 17:01N 43°31' E 010°17'3 5.2
2017-Dec-10 16:27N 43°28' E 010°14'510.6
2017-Dec-10 16:01N 43°24' E 010°13'610.7
2017-Dec-10 15:27N 43°18' E 010°10'612.1
2017-Dec-10 14:57N 43°12' E 010°08'382 7.8
2017-Dec-08 14:00N 38°24' E 015°40'510.6
2017-Dec-08 13:30N 38°20' E 015°43'5 9.6
2017-Dec-08 13:00N 38°15' E 015°40'4 7.6
2017-Dec-08 12:30N 38°12' E 015°37'611.1
2017-Dec-08 11:55N 38°06' E 015°36'511.0
2017-Dec-08 11:29N 38°01' E 015°35'510.9
2017-Dec-08 11:00N 37°56' E 015°37'611.6
2017-Dec-08 10:29N 37°52' E 015°42'  

Dump ship's entire track history